sensor_id;sensor_type;location;lat;lon;timestamp;P1;durP1;ratioP1;P2;durP2;ratioP2
7583;SDS011;3833;41.764;26.204;2022-08-07T00:00:49;7.67;;;6.97;;
7583;SDS011;3833;41.764;26.204;2022-08-07T00:03:16;7.73;;;6.83;;
7583;SDS011;3833;41.764;26.204;2022-08-07T00:05:42;7.60;;;6.77;;
7583;SDS011;3833;41.764;26.204;2022-08-07T00:08:09;8.07;;;7.27;;
7583;SDS011;3833;41.764;26.204;2022-08-07T00:10:36;8.00;;;7.27;;
7583;SDS011;3833;41.764;26.204;2022-08-07T00:13:05;8.10;;;7.30;;
7583;SDS011;3833;41.764;26.204;2022-08-07T00:15:34;11.67;;;7.30;;
7583;SDS011;3833;41.764;26.204;2022-08-07T00:18:01;9.90;;;7.00;;
7583;SDS011;3833;41.764;26.204;2022-08-07T00:20:27;7.63;;;6.63;;
7583;SDS011;3833;41.764;26.204;2022-08-07T00:22:55;10.23;;;7.57;;
7583;SDS011;3833;41.764;26.204;2022-08-07T00:25:21;10.50;;;8.03;;
7583;SDS011;3833;41.764;26.204;2022-08-07T00:27:49;8.03;;;7.17;;
7583;SDS011;3833;41.764;26.204;2022-08-07T00:30:16;10.27;;;8.17;;
7583;SDS011;3833;41.764;26.204;2022-08-07T00:32:45;8.87;;;7.97;;
7583;SDS011;3833;41.764;26.204;2022-08-07T00:35:12;8.60;;;7.70;;
7583;SDS011;3833;41.764;26.204;2022-08-07T00:37:39;7.53;;;6.83;;
7583;SDS011;3833;41.764;26.204;2022-08-07T00:40:06;8.47;;;7.43;;
7583;SDS011;3833;41.764;26.204;2022-08-07T00:42:33;9.27;;;7.70;;
7583;SDS011;3833;41.764;26.204;2022-08-07T00:45:00;8.33;;;7.53;;
7583;SDS011;3833;41.764;26.204;2022-08-07T00:47:27;8.10;;;6.90;;
7583;SDS011;3833;41.764;26.204;2022-08-07T00:49:56;8.33;;;7.47;;
7583;SDS011;3833;41.764;26.204;2022-08-07T00:52:23;10.13;;;7.33;;
7583;SDS011;3833;41.764;26.204;2022-08-07T00:54:50;8.50;;;7.10;;
7583;SDS011;3833;41.764;26.204;2022-08-07T00:57:17;7.50;;;6.80;;
7583;SDS011;3833;41.764;26.204;2022-08-07T00:59:46;8.23;;;7.53;;
7583;SDS011;3833;41.764;26.204;2022-08-07T01:02:12;8.17;;;6.90;;
7583;SDS011;3833;41.764;26.204;2022-08-07T01:04:39;9.47;;;8.00;;
7583;SDS011;3833;41.764;26.204;2022-08-07T01:07:08;8.23;;;7.33;;
7583;SDS011;3833;41.764;26.204;2022-08-07T01:09:36;7.90;;;7.10;;
7583;SDS011;3833;41.764;26.204;2022-08-07T01:12:03;8.67;;;7.77;;
7583;SDS011;3833;41.764;26.204;2022-08-07T01:14:31;8.47;;;7.67;;
7583;SDS011;3833;41.764;26.204;2022-08-07T01:16:58;8.27;;;7.40;;
7583;SDS011;3833;41.764;26.204;2022-08-07T01:19:25;8.57;;;7.67;;
7583;SDS011;3833;41.764;26.204;2022-08-07T01:21:55;10.03;;;7.73;;
7583;SDS011;3833;41.764;26.204;2022-08-07T01:24:22;8.57;;;7.67;;
7583;SDS011;3833;41.764;26.204;2022-08-07T01:26:50;8.73;;;7.93;;
7583;SDS011;3833;41.764;26.204;2022-08-07T01:29:17;9.57;;;7.73;;
7583;SDS011;3833;41.764;26.204;2022-08-07T01:31:44;8.27;;;7.33;;
7583;SDS011;3833;41.764;26.204;2022-08-07T01:34:11;8.50;;;7.70;;
7583;SDS011;3833;41.764;26.204;2022-08-07T01:36:38;7.93;;;7.07;;
7583;SDS011;3833;41.764;26.204;2022-08-07T01:39:07;8.93;;;7.77;;
7583;SDS011;3833;41.764;26.204;2022-08-07T01:41:33;9.33;;;8.23;;
7583;SDS011;3833;41.764;26.204;2022-08-07T01:44:01;10.83;;;7.87;;
7583;SDS011;3833;41.764;26.204;2022-08-07T01:46:29;11.43;;;8.10;;
7583;SDS011;3833;41.764;26.204;2022-08-07T01:48:56;10.13;;;8.80;;
7583;SDS011;3833;41.764;26.204;2022-08-07T01:51:23;9.97;;;8.03;;
7583;SDS011;3833;41.764;26.204;2022-08-07T01:53:52;9.30;;;8.30;;
7583;SDS011;3833;41.764;26.204;2022-08-07T01:56:25;10.90;;;7.83;;
7583;SDS011;3833;41.764;26.204;2022-08-07T01:58:57;9.47;;;8.30;;
7583;SDS011;3833;41.764;26.204;2022-08-07T02:01:31;10.03;;;8.83;;
7583;SDS011;3833;41.764;26.204;2022-08-07T02:04:02;11.37;;;7.73;;
7583;SDS011;3833;41.764;26.204;2022-08-07T02:06:33;9.43;;;7.93;;
7583;SDS011;3833;41.764;26.204;2022-08-07T02:09:05;13.13;;;8.70;;
7583;SDS011;3833;41.764;26.204;2022-08-07T02:11:37;10.50;;;9.40;;
7583;SDS011;3833;41.764;26.204;2022-08-07T02:14:07;9.70;;;8.40;;
7583;SDS011;3833;41.764;26.204;2022-08-07T02:16:36;10.83;;;8.47;;
7583;SDS011;3833;41.764;26.204;2022-08-07T02:19:05;11.13;;;8.97;;
7583;SDS011;3833;41.764;26.204;2022-08-07T02:21:35;12.93;;;9.33;;
7583;SDS011;3833;41.764;26.204;2022-08-07T02:24:04;12.23;;;9.20;;
7583;SDS011;3833;41.764;26.204;2022-08-07T02:26:32;9.67;;;8.47;;
7583;SDS011;3833;41.764;26.204;2022-08-07T02:29:02;10.13;;;9.10;;
7583;SDS011;3833;41.764;26.204;2022-08-07T02:31:31;11.83;;;9.60;;
7583;SDS011;3833;41.764;26.204;2022-08-07T02:34:00;10.23;;;9.13;;
7583;SDS011;3833;41.764;26.204;2022-08-07T02:36:29;10.20;;;8.97;;
7583;SDS011;3833;41.764;26.204;2022-08-07T02:38:58;12.10;;;9.20;;
7583;SDS011;3833;41.764;26.204;2022-08-07T02:41:28;14.43;;;9.93;;
7583;SDS011;3833;41.764;26.204;2022-08-07T02:43:55;15.00;;;9.83;;
7583;SDS011;3833;41.764;26.204;2022-08-07T02:46:26;11.97;;;10.43;;
7583;SDS011;3833;41.764;26.204;2022-08-07T02:48:57;12.03;;;9.83;;
7583;SDS011;3833;41.764;26.204;2022-08-07T02:51:24;12.40;;;10.37;;
7583;SDS011;3833;41.764;26.204;2022-08-07T02:53:57;14.93;;;10.63;;
7583;SDS011;3833;41.764;26.204;2022-08-07T02:56:28;14.83;;;10.00;;
7583;SDS011;3833;41.764;26.204;2022-08-07T02:58:56;10.87;;;9.77;;
7583;SDS011;3833;41.764;26.204;2022-08-07T03:01:29;11.20;;;10.03;;
7583;SDS011;3833;41.764;26.204;2022-08-07T03:03:57;11.97;;;9.33;;
7583;SDS011;3833;41.764;26.204;2022-08-07T03:06:25;13.07;;;10.53;;
7583;SDS011;3833;41.764;26.204;2022-08-07T03:08:53;10.23;;;9.17;;
7583;SDS011;3833;41.764;26.204;2022-08-07T03:11:21;10.63;;;9.53;;
7583;SDS011;3833;41.764;26.204;2022-08-07T03:13:48;9.67;;;8.50;;
7583;SDS011;3833;41.764;26.204;2022-08-07T03:16:16;11.50;;;10.07;;
7583;SDS011;3833;41.764;26.204;2022-08-07T03:18:44;10.70;;;9.60;;
7583;SDS011;3833;41.764;26.204;2022-08-07T03:21:12;15.33;;;9.87;;
7583;SDS011;3833;41.764;26.204;2022-08-07T03:23:40;12.47;;;9.90;;
7583;SDS011;3833;41.764;26.204;2022-08-07T03:26:08;10.40;;;9.23;;
7583;SDS011;3833;41.764;26.204;2022-08-07T03:28:39;12.87;;;9.70;;
7583;SDS011;3833;41.764;26.204;2022-08-07T03:31:07;12.47;;;10.00;;
7583;SDS011;3833;41.764;26.204;2022-08-07T03:33:46;12.50;;;8.77;;
7583;SDS011;3833;41.764;26.204;2022-08-07T03:36:16;12.37;;;8.97;;
7583;SDS011;3833;41.764;26.204;2022-08-07T03:38:45;13.00;;;9.80;;
7583;SDS011;3833;41.764;26.204;2022-08-07T03:41:14;11.13;;;9.40;;
7583;SDS011;3833;41.764;26.204;2022-08-07T03:43:41;11.20;;;8.90;;
7583;SDS011;3833;41.764;26.204;2022-08-07T03:46:09;14.57;;;9.17;;
7583;SDS011;3833;41.764;26.204;2022-08-07T03:48:38;9.87;;;8.87;;
7583;SDS011;3833;41.764;26.204;2022-08-07T03:51:07;15.13;;;10.17;;
7583;SDS011;3833;41.764;26.204;2022-08-07T03:53:34;11.20;;;9.50;;
7583;SDS011;3833;41.764;26.204;2022-08-07T03:56:03;12.20;;;10.10;;
7583;SDS011;3833;41.764;26.204;2022-08-07T03:58:31;13.17;;;9.63;;
7583;SDS011;3833;41.764;26.204;2022-08-07T04:00:58;15.37;;;9.63;;
7583;SDS011;3833;41.764;26.204;2022-08-07T04:03:26;11.50;;;9.30;;
7583;SDS011;3833;41.764;26.204;2022-08-07T04:05:53;10.73;;;9.63;;
7583;SDS011;3833;41.764;26.204;2022-08-07T04:08:21;12.63;;;10.13;;
7583;SDS011;3833;41.764;26.204;2022-08-07T04:10:49;11.23;;;9.20;;
7583;SDS011;3833;41.764;26.204;2022-08-07T04:13:17;10.90;;;9.80;;
7583;SDS011;3833;41.764;26.204;2022-08-07T04:15:45;11.33;;;9.93;;
7583;SDS011;3833;41.764;26.204;2022-08-07T04:18:12;11.07;;;9.77;;
7583;SDS011;3833;41.764;26.204;2022-08-07T04:20:40;11.20;;;9.27;;
7583;SDS011;3833;41.764;26.204;2022-08-07T04:23:07;10.47;;;9.37;;
7583;SDS011;3833;41.764;26.204;2022-08-07T04:25:36;11.33;;;10.10;;
7583;SDS011;3833;41.764;26.204;2022-08-07T04:28:04;14.40;;;9.23;;
7583;SDS011;3833;41.764;26.204;2022-08-07T04:30:31;10.73;;;9.40;;
7583;SDS011;3833;41.764;26.204;2022-08-07T04:32:58;12.00;;;9.43;;
7583;SDS011;3833;41.764;26.204;2022-08-07T04:35:26;12.77;;;10.27;;
7583;SDS011;3833;41.764;26.204;2022-08-07T04:37:53;12.87;;;9.87;;
7583;SDS011;3833;41.764;26.204;2022-08-07T04:40:20;10.67;;;8.80;;
7583;SDS011;3833;41.764;26.204;2022-08-07T04:42:49;12.10;;;10.33;;
7583;SDS011;3833;41.764;26.204;2022-08-07T04:45:16;11.57;;;9.63;;
7583;SDS011;3833;41.764;26.204;2022-08-07T04:47:46;13.70;;;9.63;;
7583;SDS011;3833;41.764;26.204;2022-08-07T04:50:22;11.17;;;9.97;;
7583;SDS011;3833;41.764;26.204;2022-08-07T04:53:01;12.57;;;8.97;;
7583;SDS011;3833;41.764;26.204;2022-08-07T04:55:33;12.23;;;10.73;;
7583;SDS011;3833;41.764;26.204;2022-08-07T04:58:09;13.43;;;10.33;;
7583;SDS011;3833;41.764;26.204;2022-08-07T05:00:46;10.37;;;9.20;;
7583;SDS011;3833;41.764;26.204;2022-08-07T05:03:19;11.00;;;9.90;;
7583;SDS011;3833;41.764;26.204;2022-08-07T05:05:53;12.17;;;9.63;;
7583;SDS011;3833;41.764;26.204;2022-08-07T05:08:32;12.97;;;9.50;;
7583;SDS011;3833;41.764;26.204;2022-08-07T05:11:07;11.80;;;10.40;;
7583;SDS011;3833;41.764;26.204;2022-08-07T05:13:40;12.87;;;10.07;;
7583;SDS011;3833;41.764;26.204;2022-08-07T05:16:13;12.17;;;10.10;;
7583;SDS011;3833;41.764;26.204;2022-08-07T05:18:43;10.83;;;9.43;;
7583;SDS011;3833;41.764;26.204;2022-08-07T05:21:13;13.30;;;10.93;;
7583;SDS011;3833;41.764;26.204;2022-08-07T05:23:46;11.23;;;9.23;;
7583;SDS011;3833;41.764;26.204;2022-08-07T05:26:15;11.70;;;9.40;;
7583;SDS011;3833;41.764;26.204;2022-08-07T05:28:47;10.77;;;9.77;;
7583;SDS011;3833;41.764;26.204;2022-08-07T05:31:16;12.20;;;10.90;;
7583;SDS011;3833;41.764;26.204;2022-08-07T05:33:44;13.57;;;10.43;;
7583;SDS011;3833;41.764;26.204;2022-08-07T05:36:13;13.00;;;9.60;;
7583;SDS011;3833;41.764;26.204;2022-08-07T05:38:41;14.93;;;9.97;;
7583;SDS011;3833;41.764;26.204;2022-08-07T05:41:09;13.27;;;10.20;;
7583;SDS011;3833;41.764;26.204;2022-08-07T05:43:38;13.40;;;9.93;;
7583;SDS011;3833;41.764;26.204;2022-08-07T05:46:06;11.33;;;10.17;;
7583;SDS011;3833;41.764;26.204;2022-08-07T05:48:33;11.93;;;10.33;;
7583;SDS011;3833;41.764;26.204;2022-08-07T05:51:00;11.63;;;9.60;;
7583;SDS011;3833;41.764;26.204;2022-08-07T05:53:27;11.33;;;9.23;;
7583;SDS011;3833;41.764;26.204;2022-08-07T05:55:54;10.80;;;9.67;;
7583;SDS011;3833;41.764;26.204;2022-08-07T05:58:23;8.63;;;7.83;;
7583;SDS011;3833;41.764;26.204;2022-08-07T06:00:52;12.43;;;9.17;;
7583;SDS011;3833;41.764;26.204;2022-08-07T06:03:22;10.37;;;9.30;;
7583;SDS011;3833;41.764;26.204;2022-08-07T06:05:50;12.67;;;10.87;;
7583;SDS011;3833;41.764;26.204;2022-08-07T06:08:18;10.87;;;9.13;;
7583;SDS011;3833;41.764;26.204;2022-08-07T06:10:46;12.87;;;9.60;;
7583;SDS011;3833;41.764;26.204;2022-08-07T06:13:13;9.63;;;8.40;;
7583;SDS011;3833;41.764;26.204;2022-08-07T06:15:40;9.93;;;8.93;;
7583;SDS011;3833;41.764;26.204;2022-08-07T06:18:08;10.37;;;9.03;;
7583;SDS011;3833;41.764;26.204;2022-08-07T06:20:39;15.70;;;10.03;;
7583;SDS011;3833;41.764;26.204;2022-08-07T06:23:07;10.70;;;9.07;;
7583;SDS011;3833;41.764;26.204;2022-08-07T06:25:34;15.17;;;13.63;;
7583;SDS011;3833;41.764;26.204;2022-08-07T06:28:05;10.03;;;9.03;;
7583;SDS011;3833;41.764;26.204;2022-08-07T06:30:33;9.97;;;8.30;;
7583;SDS011;3833;41.764;26.204;2022-08-07T06:33:00;9.07;;;6.60;;
7583;SDS011;3833;41.764;26.204;2022-08-07T06:35:27;11.77;;;6.33;;
7583;SDS011;3833;41.764;26.204;2022-08-07T06:37:58;7.60;;;5.33;;
7583;SDS011;3833;41.764;26.204;2022-08-07T06:40:27;6.67;;;5.80;;
7583;SDS011;3833;41.764;26.204;2022-08-07T06:42:55;7.47;;;5.43;;
7583;SDS011;3833;41.764;26.204;2022-08-07T06:45:22;6.47;;;5.87;;
7583;SDS011;3833;41.764;26.204;2022-08-07T06:47:50;7.37;;;5.87;;
7583;SDS011;3833;41.764;26.204;2022-08-07T06:50:17;6.00;;;5.50;;
7583;SDS011;3833;41.764;26.204;2022-08-07T06:52:45;6.00;;;5.40;;
7583;SDS011;3833;41.764;26.204;2022-08-07T06:55:18;17.47;;;6.27;;
7583;SDS011;3833;41.764;26.204;2022-08-07T06:57:48;7.70;;;5.33;;
7583;SDS011;3833;41.764;26.204;2022-08-07T07:00:17;13.87;;;6.30;;
7583;SDS011;3833;41.764;26.204;2022-08-07T07:02:44;6.23;;;5.10;;
7583;SDS011;3833;41.764;26.204;2022-08-07T07:05:12;7.97;;;6.53;;
7583;SDS011;3833;41.764;26.204;2022-08-07T07:07:39;9.20;;;8.23;;
7583;SDS011;3833;41.764;26.204;2022-08-07T07:10:11;15.53;;;11.03;;
7583;SDS011;3833;41.764;26.204;2022-08-07T07:12:42;6.57;;;5.73;;
7583;SDS011;3833;41.764;26.204;2022-08-07T07:15:15;6.77;;;5.33;;
7583;SDS011;3833;41.764;26.204;2022-08-07T07:17:48;21.73;;;7.70;;
7583;SDS011;3833;41.764;26.204;2022-08-07T07:20:20;10.80;;;6.00;;
7583;SDS011;3833;41.764;26.204;2022-08-07T07:22:50;5.73;;;5.20;;
7583;SDS011;3833;41.764;26.204;2022-08-07T07:25:19;7.23;;;5.37;;
7583;SDS011;3833;41.764;26.204;2022-08-07T07:27:49;5.93;;;5.40;;
7583;SDS011;3833;41.764;26.204;2022-08-07T07:30:19;10.50;;;6.37;;
7583;SDS011;3833;41.764;26.204;2022-08-07T07:32:49;7.33;;;4.90;;
7583;SDS011;3833;41.764;26.204;2022-08-07T07:35:18;5.77;;;4.90;;
7583;SDS011;3833;41.764;26.204;2022-08-07T07:37:48;5.23;;;4.70;;
7583;SDS011;3833;41.764;26.204;2022-08-07T07:40:17;23.30;;;7.00;;
7583;SDS011;3833;41.764;26.204;2022-08-07T07:42:49;9.13;;;5.80;;
7583;SDS011;3833;41.764;26.204;2022-08-07T07:45:18;5.47;;;5.00;;
7583;SDS011;3833;41.764;26.204;2022-08-07T07:47:47;7.00;;;6.30;;
7583;SDS011;3833;41.764;26.204;2022-08-07T07:50:16;14.30;;;6.20;;
7583;SDS011;3833;41.764;26.204;2022-08-07T07:52:45;13.50;;;5.93;;
7583;SDS011;3833;41.764;26.204;2022-08-07T07:55:13;7.03;;;5.53;;
7583;SDS011;3833;41.764;26.204;2022-08-07T07:57:44;9.80;;;6.23;;
7583;SDS011;3833;41.764;26.204;2022-08-07T08:00:15;7.03;;;5.57;;
7583;SDS011;3833;41.764;26.204;2022-08-07T08:02:44;5.90;;;5.40;;
7583;SDS011;3833;41.764;26.204;2022-08-07T08:05:15;6.32;;;5.43;;
7583;SDS011;3833;41.764;26.204;2022-08-07T08:07:43;8.65;;;5.70;;
7583;SDS011;3833;41.764;26.204;2022-08-07T08:10:11;7.53;;;5.83;;
7583;SDS011;3833;41.764;26.204;2022-08-07T08:12:39;6.30;;;5.80;;
7583;SDS011;3833;41.764;26.204;2022-08-07T08:15:09;9.83;;;6.53;;
7583;SDS011;3833;41.764;26.204;2022-08-07T08:17:36;8.43;;;6.07;;
7583;SDS011;3833;41.764;26.204;2022-08-07T08:20:04;7.53;;;6.00;;
7583;SDS011;3833;41.764;26.204;2022-08-07T08:22:33;6.63;;;5.90;;
7583;SDS011;3833;41.764;26.204;2022-08-07T08:25:22;7.13;;;5.97;;
7583;SDS011;3833;41.764;26.204;2022-08-07T08:28:08;6.27;;;5.43;;
7583;SDS011;3833;41.764;26.204;2022-08-07T08:30:41;7.30;;;5.97;;
7583;SDS011;3833;41.764;26.204;2022-08-07T08:33:10;7.03;;;5.93;;
7583;SDS011;3833;41.764;26.204;2022-08-07T08:35:43;9.23;;;6.40;;
7583;SDS011;3833;41.764;26.204;2022-08-07T08:38:13;7.23;;;6.03;;
7583;SDS011;3833;41.764;26.204;2022-08-07T08:40:43;13.00;;;6.40;;
7583;SDS011;3833;41.764;26.204;2022-08-07T08:43:16;6.53;;;5.50;;
7583;SDS011;3833;41.764;26.204;2022-08-07T08:45:48;5.53;;;4.93;;
7583;SDS011;3833;41.764;26.204;2022-08-07T08:48:21;10.77;;;5.37;;
7583;SDS011;3833;41.764;26.204;2022-08-07T08:50:57;5.87;;;5.23;;
7583;SDS011;3833;41.764;26.204;2022-08-07T08:53:30;6.47;;;5.87;;
7583;SDS011;3833;41.764;26.204;2022-08-07T08:56:03;7.10;;;5.53;;
7583;SDS011;3833;41.764;26.204;2022-08-07T08:58:35;5.67;;;4.87;;
7583;SDS011;3833;41.764;26.204;2022-08-07T09:01:11;6.70;;;5.60;;
7583;SDS011;3833;41.764;26.204;2022-08-07T09:03:45;8.47;;;5.63;;
7583;SDS011;3833;41.764;26.204;2022-08-07T09:06:20;5.97;;;5.40;;
7583;SDS011;3833;41.764;26.204;2022-08-07T09:09:05;6.23;;;5.63;;
7583;SDS011;3833;41.764;26.204;2022-08-07T09:11:38;7.50;;;6.00;;
7583;SDS011;3833;41.764;26.204;2022-08-07T09:14:09;7.03;;;5.80;;
7583;SDS011;3833;41.764;26.204;2022-08-07T09:16:46;6.30;;;5.70;;
7583;SDS011;3833;41.764;26.204;2022-08-07T09:19:21;9.27;;;5.80;;
7583;SDS011;3833;41.764;26.204;2022-08-07T09:22:00;5.63;;;5.13;;
7583;SDS011;3833;41.764;26.204;2022-08-07T09:24:41;6.83;;;6.23;;
7583;SDS011;3833;41.764;26.204;2022-08-07T09:27:21;5.30;;;4.77;;
7583;SDS011;3833;41.764;26.204;2022-08-07T09:29:54;8.83;;;6.17;;
7583;SDS011;3833;41.764;26.204;2022-08-07T09:32:30;17.50;;;7.03;;
7583;SDS011;3833;41.764;26.204;2022-08-07T09:35:10;10.07;;;5.27;;
7583;SDS011;3833;41.764;26.204;2022-08-07T09:37:49;28.80;;;7.73;;
7583;SDS011;3833;41.764;26.204;2022-08-07T09:40:25;8.63;;;6.63;;
7583;SDS011;3833;41.764;26.204;2022-08-07T09:42:59;27.63;;;7.97;;
7583;SDS011;3833;41.764;26.204;2022-08-07T09:45:36;8.87;;;7.03;;
7583;SDS011;3833;41.764;26.204;2022-08-07T09:48:21;6.70;;;6.00;;
7583;SDS011;3833;41.764;26.204;2022-08-07T09:51:04;7.07;;;6.23;;
7583;SDS011;3833;41.764;26.204;2022-08-07T09:53:39;11.97;;;6.90;;
7583;SDS011;3833;41.764;26.204;2022-08-07T09:56:29;8.87;;;6.03;;
7583;SDS011;3833;41.764;26.204;2022-08-07T10:02:13;8.07;;;6.27;;
7583;SDS011;3833;41.764;26.204;2022-08-07T10:05:15;26.70;;;7.53;;
7583;SDS011;3833;41.764;26.204;2022-08-07T10:08:14;9.17;;;6.80;;
7583;SDS011;3833;41.764;26.204;2022-08-07T10:11:02;6.20;;;5.47;;
7583;SDS011;3833;41.764;26.204;2022-08-07T10:13:38;16.60;;;5.77;;
7583;SDS011;3833;41.764;26.204;2022-08-07T10:19:39;6.77;;;5.57;;
7583;SDS011;3833;41.764;26.204;2022-08-07T10:22:21;5.57;;;5.13;;
7583;SDS011;3833;41.764;26.204;2022-08-07T10:25:23;11.33;;;6.07;;
7583;SDS011;3833;41.764;26.204;2022-08-07T10:28:11;7.27;;;5.47;;
7583;SDS011;3833;41.764;26.204;2022-08-07T10:30:52;6.47;;;5.32;;
7583;SDS011;3833;41.764;26.204;2022-08-07T10:33:29;7.57;;;5.50;;
7583;SDS011;3833;41.764;26.204;2022-08-07T10:36:24;7.50;;;5.10;;
7583;SDS011;3833;41.764;26.204;2022-08-07T10:39:03;14.07;;;5.93;;
7583;SDS011;3833;41.764;26.204;2022-08-07T10:41:38;5.97;;;5.47;;
7583;SDS011;3833;41.764;26.204;2022-08-07T10:44:11;5.82;;;5.32;;
7583;SDS011;3833;41.764;26.204;2022-08-07T10:46:45;6.70;;;5.68;;
7583;SDS011;3833;41.764;26.204;2022-08-07T10:49:21;69.30;;;12.30;;
7583;SDS011;3833;41.764;26.204;2022-08-07T10:51:53;12.30;;;6.23;;
7583;SDS011;3833;41.764;26.204;2022-08-07T10:54:28;6.90;;;4.40;;
7583;SDS011;3833;41.764;26.204;2022-08-07T10:57:05;5.60;;;4.63;;
7583;SDS011;3833;41.764;26.204;2022-08-07T10:59:46;59.95;;;11.48;;
7583;SDS011;3833;41.764;26.204;2022-08-07T11:02:31;10.77;;;6.32;;
7583;SDS011;3833;41.764;26.204;2022-08-07T11:05:13;6.10;;;4.85;;
7583;SDS011;3833;41.764;26.204;2022-08-07T11:07:56;9.80;;;5.57;;
7583;SDS011;3833;41.764;26.204;2022-08-07T11:10:37;5.97;;;5.35;;
7583;SDS011;3833;41.764;26.204;2022-08-07T11:13:08;9.13;;;5.57;;
7583;SDS011;3833;41.764;26.204;2022-08-07T11:15:39;8.05;;;6.25;;
7583;SDS011;3833;41.764;26.204;2022-08-07T11:18:13;10.52;;;5.32;;
7583;SDS011;3833;41.764;26.204;2022-08-07T11:20:46;6.45;;;5.38;;
7583;SDS011;3833;41.764;26.204;2022-08-07T11:23:19;6.00;;;5.40;;
7583;SDS011;3833;41.764;26.204;2022-08-07T11:25:53;6.07;;;5.38;;
7583;SDS011;3833;41.764;26.204;2022-08-07T11:28:29;6.50;;;5.30;;
7583;SDS011;3833;41.764;26.204;2022-08-07T11:31:03;6.53;;;5.60;;
7583;SDS011;3833;41.764;26.204;2022-08-07T11:33:38;28.58;;;7.90;;
7583;SDS011;3833;41.764;26.204;2022-08-07T11:36:24;21.48;;;6.60;;
7583;SDS011;3833;41.764;26.204;2022-08-07T11:39:05;12.85;;;5.82;;
7583;SDS011;3833;41.764;26.204;2022-08-07T11:41:43;6.70;;;5.30;;
7583;SDS011;3833;41.764;26.204;2022-08-07T11:44:21;9.55;;;5.10;;
7583;SDS011;3833;41.764;26.204;2022-08-07T11:46:57;6.03;;;5.43;;
7583;SDS011;3833;41.764;26.204;2022-08-07T11:49:39;7.82;;;5.20;;
7583;SDS011;3833;41.764;26.204;2022-08-07T11:52:26;444.07;;;48.47;;
7583;SDS011;3833;41.764;26.204;2022-08-07T11:55:07;293.20;;;34.93;;
7583;SDS011;3833;41.764;26.204;2022-08-07T11:57:46;303.73;;;33.83;;
7583;SDS011;3833;41.764;26.204;2022-08-07T12:00:24;77.13;;;14.53;;
7583;SDS011;3833;41.764;26.204;2022-08-07T12:03:04;107.70;;;14.67;;
7583;SDS011;3833;41.764;26.204;2022-08-07T12:05:46;67.67;;;10.90;;
7583;SDS011;3833;41.764;26.204;2022-08-07T12:08:24;39.27;;;9.50;;
7583;SDS011;3833;41.764;26.204;2022-08-07T12:10:57;7.57;;;5.00;;
7583;SDS011;3833;41.764;26.204;2022-08-07T12:13:32;20.77;;;6.27;;
7583;SDS011;3833;41.764;26.204;2022-08-07T12:16:09;8.53;;;5.83;;
7583;SDS011;3833;41.764;26.204;2022-08-07T12:18:43;12.60;;;5.67;;
7583;SDS011;3833;41.764;26.204;2022-08-07T12:21:18;5.73;;;5.13;;
7583;SDS011;3833;41.764;26.204;2022-08-07T12:23:56;5.40;;;4.90;;
7583;SDS011;3833;41.764;26.204;2022-08-07T12:26:28;6.10;;;4.77;;
7583;SDS011;3833;41.764;26.204;2022-08-07T12:29:02;10.30;;;5.13;;
7583;SDS011;3833;41.764;26.204;2022-08-07T12:31:35;9.47;;;5.03;;
7583;SDS011;3833;41.764;26.204;2022-08-07T12:34:04;9.53;;;5.07;;
7583;SDS011;3833;41.764;26.204;2022-08-07T12:36:32;5.33;;;4.27;;
7583;SDS011;3833;41.764;26.204;2022-08-07T12:39:02;4.97;;;3.67;;
7583;SDS011;3833;41.764;26.204;2022-08-07T12:41:31;4.10;;;3.70;;
7583;SDS011;3833;41.764;26.204;2022-08-07T12:44:03;4.50;;;3.50;;
7583;SDS011;3833;41.764;26.204;2022-08-07T12:46:39;4.13;;;3.30;;
7583;SDS011;3833;41.764;26.204;2022-08-07T12:49:18;5.90;;;2.90;;
7583;SDS011;3833;41.764;26.204;2022-08-07T12:51:52;7.73;;;3.30;;
7583;SDS011;3833;41.764;26.204;2022-08-07T12:54:28;3.23;;;2.93;;
7583;SDS011;3833;41.764;26.204;2022-08-07T12:57:00;4.10;;;3.13;;
7583;SDS011;3833;41.764;26.204;2022-08-07T12:59:32;3.77;;;3.37;;
7583;SDS011;3833;41.764;26.204;2022-08-07T13:02:07;6.13;;;3.70;;
7583;SDS011;3833;41.764;26.204;2022-08-07T13:04:58;5.07;;;3.63;;
7583;SDS011;3833;41.764;26.204;2022-08-07T13:07:38;3.33;;;2.90;;
7583;SDS011;3833;41.764;26.204;2022-08-07T13:10:20;8.00;;;4.27;;
7583;SDS011;3833;41.764;26.204;2022-08-07T13:13:00;4.73;;;3.60;;
7583;SDS011;3833;41.764;26.204;2022-08-07T13:15:45;13.83;;;3.93;;
7583;SDS011;3833;41.764;26.204;2022-08-07T13:18:23;5.00;;;3.97;;
7583;SDS011;3833;41.764;26.204;2022-08-07T13:20:58;6.23;;;4.07;;
7583;SDS011;3833;41.764;26.204;2022-08-07T13:23:32;38.43;;;6.50;;
7583;SDS011;3833;41.764;26.204;2022-08-07T13:26:06;7.43;;;3.47;;
7583;SDS011;3833;41.764;26.204;2022-08-07T13:28:40;6.30;;;3.50;;
7583;SDS011;3833;41.764;26.204;2022-08-07T13:31:15;3.60;;;3.30;;
7583;SDS011;3833;41.764;26.204;2022-08-07T13:33:47;7.03;;;3.33;;
7583;SDS011;3833;41.764;26.204;2022-08-07T13:36:22;6.03;;;3.23;;
7583;SDS011;3833;41.764;26.204;2022-08-07T13:38:55;5.47;;;3.40;;
7583;SDS011;3833;41.764;26.204;2022-08-07T13:41:29;3.13;;;2.80;;
7583;SDS011;3833;41.764;26.204;2022-08-07T13:44:04;4.33;;;2.90;;
7583;SDS011;3833;41.764;26.204;2022-08-07T13:46:34;6.77;;;3.57;;
7583;SDS011;3833;41.764;26.204;2022-08-07T13:49:05;5.70;;;3.80;;
7583;SDS011;3833;41.764;26.204;2022-08-07T13:51:33;3.90;;;3.60;;
7583;SDS011;3833;41.764;26.204;2022-08-07T13:54:05;12.47;;;3.73;;
7583;SDS011;3833;41.764;26.204;2022-08-07T13:56:35;6.77;;;4.17;;
7583;SDS011;3833;41.764;26.204;2022-08-07T13:59:06;5.83;;;3.40;;
7583;SDS011;3833;41.764;26.204;2022-08-07T14:01:42;11.57;;;4.27;;
7583;SDS011;3833;41.764;26.204;2022-08-07T14:04:14;3.93;;;3.63;;
7583;SDS011;3833;41.764;26.204;2022-08-07T14:06:43;7.47;;;4.60;;
7583;SDS011;3833;41.764;26.204;2022-08-07T14:09:15;4.73;;;3.87;;
7583;SDS011;3833;41.764;26.204;2022-08-07T14:11:45;5.57;;;4.43;;
7583;SDS011;3833;41.764;26.204;2022-08-07T14:14:15;3.93;;;3.53;;
7583;SDS011;3833;41.764;26.204;2022-08-07T14:16:46;5.67;;;4.20;;
7583;SDS011;3833;41.764;26.204;2022-08-07T14:19:15;4.27;;;3.50;;
7583;SDS011;3833;41.764;26.204;2022-08-07T14:21:49;9.00;;;3.90;;
7583;SDS011;3833;41.764;26.204;2022-08-07T14:24:19;5.20;;;3.93;;
7583;SDS011;3833;41.764;26.204;2022-08-07T14:26:54;5.23;;;3.77;;
7583;SDS011;3833;41.764;26.204;2022-08-07T14:29:24;6.20;;;3.93;;
7583;SDS011;3833;41.764;26.204;2022-08-07T14:31:58;4.60;;;3.83;;
7583;SDS011;3833;41.764;26.204;2022-08-07T14:34:26;7.53;;;4.07;;
7583;SDS011;3833;41.764;26.204;2022-08-07T14:36:56;3.50;;;3.17;;
7583;SDS011;3833;41.764;26.204;2022-08-07T14:39:25;8.20;;;3.53;;
7583;SDS011;3833;41.764;26.204;2022-08-07T14:42:00;4.37;;;3.70;;
7583;SDS011;3833;41.764;26.204;2022-08-07T14:44:42;5.23;;;4.00;;
7583;SDS011;3833;41.764;26.204;2022-08-07T14:47:17;7.07;;;3.50;;
7583;SDS011;3833;41.764;26.204;2022-08-07T14:49:47;4.57;;;3.63;;
7583;SDS011;3833;41.764;26.204;2022-08-07T14:52:15;6.00;;;3.60;;
7583;SDS011;3833;41.764;26.204;2022-08-07T14:54:44;4.40;;;3.37;;
7583;SDS011;3833;41.764;26.204;2022-08-07T14:57:14;4.63;;;3.70;;
7583;SDS011;3833;41.764;26.204;2022-08-07T14:59:42;6.27;;;3.93;;
7583;SDS011;3833;41.764;26.204;2022-08-07T15:02:13;6.17;;;4.00;;
7583;SDS011;3833;41.764;26.204;2022-08-07T15:04:44;7.03;;;3.50;;
7583;SDS011;3833;41.764;26.204;2022-08-07T15:07:15;5.60;;;3.50;;
7583;SDS011;3833;41.764;26.204;2022-08-07T15:09:43;6.87;;;4.30;;
7583;SDS011;3833;41.764;26.204;2022-08-07T15:12:12;5.30;;;3.80;;
7583;SDS011;3833;41.764;26.204;2022-08-07T15:14:46;4.57;;;3.60;;
7583;SDS011;3833;41.764;26.204;2022-08-07T15:17:17;6.23;;;3.80;;
7583;SDS011;3833;41.764;26.204;2022-08-07T15:19:49;4.97;;;4.00;;
7583;SDS011;3833;41.764;26.204;2022-08-07T15:22:21;4.37;;;3.77;;
7583;SDS011;3833;41.764;26.204;2022-08-07T15:24:51;5.77;;;3.80;;
7583;SDS011;3833;41.764;26.204;2022-08-07T15:27:20;5.57;;;3.63;;